createdAt,value
2017-11-23T00:00:10.801Z,8.30
2017-11-23T00:02:39.082Z,7.40
2017-11-23T00:05:08.265Z,7.27
2017-11-23T00:07:36.546Z,7.93
2017-11-23T00:10:05.015Z,8.33
2017-11-23T00:12:33.295Z,8.50
2017-11-23T00:15:01.593Z,8.10
2017-11-23T00:17:29.855Z,7.83
2017-11-23T00:19:58.180Z,7.63
2017-11-23T00:22:26.474Z,7.90
2017-11-23T00:24:54.753Z,7.78
2017-11-23T00:27:23.057Z,6.90
2017-11-23T00:29:51.341Z,7.30
2017-11-23T00:32:19.680Z,6.93
2017-11-23T00:34:47.945Z,7.20
2017-11-23T00:37:16.216Z,5.73
2017-11-23T00:39:44.472Z,6.20
2017-11-23T00:42:12.765Z,6.30
2017-11-23T00:44:41.018Z,5.83
2017-11-23T00:47:09.321Z,6.00
2017-11-23T00:49:37.645Z,5.07
2017-11-23T00:52:05.939Z,5.40
2017-11-23T00:54:34.218Z,5.40
2017-11-23T00:57:02.481Z,5.85
2017-11-23T00:59:30.760Z,5.70
2017-11-23T01:01:59.009Z,5.43
2017-11-23T01:04:28.289Z,5.30
2017-11-23T01:06:56.626Z,5.80
2017-11-23T01:09:25.334Z,5.97
2017-11-23T01:11:53.581Z,6.03
2017-11-23T01:14:21.853Z,6.30
2017-11-23T01:16:50.160Z,6.37
2017-11-23T01:19:18.435Z,5.62
2017-11-23T01:21:48.632Z,5.73
2017-11-23T01:24:16.879Z,5.17
2017-11-23T01:26:45.170Z,5.40
2017-11-23T01:29:13.426Z,5.60
2017-11-23T01:31:41.709Z,5.73
2017-11-23T01:34:09.969Z,6.93
2017-11-23T01:36:38.240Z,5.80
2017-11-23T01:39:06.645Z,5.43
2017-11-23T01:41:34.973Z,5.90
2017-11-23T01:44:03.251Z,6.17
2017-11-23T01:46:31.513Z,6.40
2017-11-23T01:48:59.837Z,5.77
2017-11-23T01:51:28.100Z,6.47
2017-11-23T01:53:56.515Z,5.67
2017-11-23T01:56:24.791Z,5.83
2017-11-23T01:58:53.757Z,6.57
2017-11-23T02:01:22.343Z,6.25
2017-11-23T02:03:50.672Z,5.80
2017-11-23T02:06:18.940Z,5.70
2017-11-23T02:08:47.225Z,5.97
2017-11-23T02:11:15.543Z,5.95
2017-11-23T02:13:43.821Z,5.63
2017-11-23T02:16:12.128Z,6.03
2017-11-23T02:18:40.380Z,5.85
2017-11-23T02:21:08.782Z,6.07
2017-11-23T02:23:37.058Z,6.17
2017-11-23T02:26:05.320Z,5.67
2017-11-23T02:28:33.661Z,5.82
2017-11-23T02:31:01.895Z,5.53
2017-11-23T02:33:30.204Z,5.40
2017-11-23T02:35:58.462Z,5.60
2017-11-23T02:38:27.075Z,5.70
2017-11-23T02:40:55.351Z,5.27
2017-11-23T02:43:23.619Z,6.80
2017-11-23T02:45:51.926Z,6.17
2017-11-23T02:48:20.234Z,5.60
2017-11-23T02:50:48.495Z,6.30
2017-11-23T02:53:16.753Z,7.07
2017-11-23T02:55:45.880Z,11.07
2017-11-23T02:58:14.158Z,8.00
2017-11-23T03:00:42.425Z,8.10
2017-11-23T03:03:10.725Z,8.90
2017-11-23T03:05:38.988Z,8.82
2017-11-23T03:08:07.677Z,8.90
2017-11-23T03:10:35.944Z,8.50
2017-11-23T03:13:04.198Z,9.10
2017-11-23T03:15:32.489Z,8.20
2017-11-23T03:18:00.753Z,7.70
2017-11-23T03:20:29.054Z,8.07
2017-11-23T03:22:57.317Z,9.63
2017-11-23T03:25:25.612Z,10.10
2017-11-23T03:27:53.872Z,10.70
2017-11-23T03:30:22.167Z,9.47
2017-11-23T03:32:50.525Z,8.40
2017-11-23T03:35:18.946Z,7.47
2017-11-23T03:37:47.199Z,8.20
2017-11-23T03:40:15.453Z,7.50
2017-11-23T03:42:43.736Z,8.00
2017-11-23T03:45:12.020Z,8.15
2017-11-23T03:47:40.328Z,8.20
2017-11-23T03:50:08.776Z,8.10
2017-11-23T03:52:37.093Z,7.45
2017-11-23T03:55:05.880Z,8.13
2017-11-23T03:57:34.189Z,8.67
2017-11-23T04:00:02.480Z,8.40
2017-11-23T04:02:30.751Z,7.57
2017-11-23T04:04:59.140Z,7.25
2017-11-23T04:07:27.395Z,7.80
2017-11-23T04:09:55.648Z,8.23
2017-11-23T04:12:23.941Z,7.97
2017-11-23T04:14:52.232Z,7.90
2017-11-23T04:17:20.689Z,7.03
2017-11-23T04:19:48.948Z,7.90
2017-11-23T04:22:17.222Z,8.27
2017-11-23T04:24:45.528Z,7.77
2017-11-23T04:27:13.811Z,8.40
2017-11-23T04:29:42.076Z,8.30
2017-11-23T04:32:10.331Z,8.20
2017-11-23T04:34:39.581Z,7.73
2017-11-23T04:37:07.839Z,8.30
2017-11-23T04:39:36.104Z,7.83
2017-11-23T04:42:04.950Z,8.70
2017-11-23T04:44:33.208Z,7.77
2017-11-23T04:47:01.560Z,7.72
2017-11-23T04:49:29.815Z,7.97
2017-11-23T04:51:58.186Z,8.70
2017-11-23T04:54:31.892Z,8.43
2017-11-23T04:57:00.157Z,8.57
2017-11-23T04:59:28.444Z,8.50
2017-11-23T05:01:57.016Z,8.53
2017-11-23T05:04:26.203Z,7.60
2017-11-23T05:06:54.471Z,8.30
2017-11-23T05:09:22.776Z,8.23
2017-11-23T05:11:51.087Z,7.50
2017-11-23T05:14:19.383Z,8.73
2017-11-23T05:16:47.649Z,7.95
2017-11-23T05:19:16.301Z,7.87
2017-11-23T05:21:44.550Z,8.37
2017-11-23T05:24:12.797Z,7.93
2017-11-23T05:26:41.082Z,8.20
2017-11-23T05:29:09.365Z,8.48
2017-11-23T05:31:37.785Z,8.17
2017-11-23T05:34:06.016Z,8.00
2017-11-23T05:36:34.297Z,9.30
2017-11-23T05:39:02.595Z,8.57
2017-11-23T05:41:31.272Z,9.00
2017-11-23T05:43:59.548Z,8.60
2017-11-23T05:46:27.829Z,8.53
2017-11-23T05:48:56.105Z,10.90
2017-11-23T05:51:24.376Z,10.23
2017-11-23T05:53:52.684Z,9.10
2017-11-23T05:56:21.010Z,9.97
2017-11-23T05:58:49.312Z,9.90
2017-11-23T06:01:17.587Z,9.75
2017-11-23T06:03:45.881Z,9.30
2017-11-23T06:06:14.140Z,8.80
2017-11-23T06:08:42.465Z,9.63
2017-11-23T06:11:10.721Z,10.63
2017-11-23T06:13:38.979Z,13.40
2017-11-23T06:16:07.264Z,14.00
2017-11-23T06:18:35.548Z,14.10
2017-11-23T06:21:04.837Z,12.63
2017-11-23T06:23:33.279Z,11.88
2017-11-23T06:26:02.022Z,13.20
2017-11-23T06:28:30.296Z,12.67
2017-11-23T06:30:58.625Z,12.30
2017-11-23T06:33:27.010Z,13.03
2017-11-23T06:35:55.260Z,12.80
2017-11-23T06:38:23.561Z,12.15
2017-11-23T06:40:51.950Z,12.10
2017-11-23T06:43:20.219Z,12.57
2017-11-23T06:45:48.477Z,11.83
2017-11-23T06:48:16.786Z,13.20
2017-11-23T06:50:45.071Z,13.57
2017-11-23T06:53:13.328Z,13.90
2017-11-23T06:55:41.669Z,13.50
2017-11-23T06:58:09.954Z,12.67
2017-11-23T07:00:38.226Z,17.03
2017-11-23T07:03:06.595Z,13.53
2017-11-23T07:05:35.007Z,13.68
2017-11-23T07:08:03.293Z,15.70
2017-11-23T07:10:31.575Z,15.45
2017-11-23T07:12:59.886Z,14.97
2017-11-23T07:15:28.197Z,14.50
2017-11-23T07:18:00.322Z,13.80
2017-11-23T07:20:29.416Z,16.23
2017-11-23T07:22:57.712Z,14.80
2017-11-23T07:25:26.020Z,15.33
2017-11-23T07:27:54.390Z,11.23
2017-11-23T07:30:22.682Z,9.50
2017-11-23T07:32:51.468Z,10.53
2017-11-23T07:35:19.737Z,8.47
2017-11-23T07:37:48.023Z,6.57
2017-11-23T07:40:16.338Z,6.85
2017-11-23T07:42:44.609Z,6.53
2017-11-23T07:45:12.881Z,6.75
2017-11-23T07:47:41.195Z,8.03
2017-11-23T07:50:09.491Z,7.10
2017-11-23T07:52:37.754Z,8.48
2017-11-23T07:55:06.068Z,8.03
2017-11-23T07:57:34.344Z,7.20
2017-11-23T08:00:02.629Z,6.33
2017-11-23T08:02:31.122Z,5.63
2017-11-23T08:04:59.742Z,6.10
2017-11-23T08:07:28.914Z,6.30
2017-11-23T08:09:57.175Z,5.75
2017-11-23T08:12:25.501Z,5.70
2017-11-23T08:14:54.013Z,5.30
2017-11-23T08:17:22.301Z,5.32
2017-11-23T08:19:50.683Z,5.70
2017-11-23T08:22:18.963Z,6.50
2017-11-23T08:24:47.291Z,4.53
2017-11-23T08:27:15.573Z,5.65
2017-11-23T08:29:43.856Z,4.97
2017-11-23T08:32:12.222Z,5.65
2017-11-23T08:34:40.537Z,5.60
2017-11-23T08:37:08.868Z,5.50
2017-11-23T08:39:37.154Z,5.20
2017-11-23T08:42:05.481Z,3.90
2017-11-23T08:44:33.781Z,3.60
2017-11-23T08:47:02.081Z,3.40
2017-11-23T08:49:30.384Z,3.30
2017-11-23T08:51:58.678Z,3.22
2017-11-23T08:54:32.881Z,3.43
2017-11-23T08:57:01.794Z,3.30
2017-11-23T08:59:30.073Z,3.30
2017-11-23T09:01:59.279Z,3.03
2017-11-23T09:04:27.529Z,2.67
2017-11-23T09:06:55.907Z,3.70
2017-11-23T09:09:24.206Z,3.00
2017-11-23T09:11:52.561Z,3.40
2017-11-23T09:14:20.841Z,3.10
2017-11-23T09:16:49.118Z,2.93
2017-11-23T09:19:17.447Z,2.90
2017-11-23T09:21:46.344Z,2.93
2017-11-23T09:24:14.632Z,3.08
2017-11-23T09:26:42.938Z,2.77
2017-11-23T09:29:11.220Z,3.50
2017-11-23T09:31:39.524Z,3.07
2017-11-23T09:34:07.836Z,3.00
2017-11-23T09:36:36.092Z,3.47
2017-11-23T09:39:04.358Z,3.03
2017-11-23T09:41:33.672Z,2.60
2017-11-23T09:44:01.940Z,2.77
2017-11-23T09:46:30.237Z,2.97
2017-11-23T09:48:58.548Z,2.67
2017-11-23T09:51:26.911Z,3.00
2017-11-23T09:53:55.212Z,2.93
2017-11-23T09:56:23.463Z,2.90
2017-11-23T09:58:51.749Z,3.40
2017-11-23T10:01:20.008Z,2.55
2017-11-23T10:03:48.315Z,3.27
2017-11-23T10:06:16.620Z,2.50
2017-11-23T10:08:44.925Z,2.60
2017-11-23T10:11:13.197Z,3.17
2017-11-23T10:13:41.551Z,2.47
2017-11-23T10:16:09.921Z,2.45
2017-11-23T10:18:38.187Z,3.00
2017-11-23T10:21:06.593Z,3.40
2017-11-23T10:23:34.865Z,2.60
2017-11-23T10:26:03.164Z,3.30
2017-11-23T10:28:31.435Z,2.50
2017-11-23T10:30:59.737Z,2.70
2017-11-23T10:33:28.040Z,2.57
2017-11-23T10:35:58.367Z,2.73
2017-11-23T10:38:26.654Z,2.40
2017-11-23T10:40:54.993Z,2.90
2017-11-23T10:43:23.249Z,2.60
2017-11-23T10:45:51.533Z,2.50
2017-11-23T10:48:31.537Z,2.43
2017-11-23T10:50:59.953Z,2.33
2017-11-23T10:53:28.191Z,2.70
2017-11-23T10:55:56.493Z,2.50
2017-11-23T10:58:25.051Z,2.60
2017-11-23T11:00:53.357Z,2.40
2017-11-23T11:03:21.635Z,2.57
2017-11-23T11:05:49.983Z,2.70
2017-11-23T11:08:18.281Z,2.78
2017-11-23T11:10:46.577Z,2.70
2017-11-23T11:13:14.848Z,2.83
2017-11-23T11:15:43.156Z,3.03
2017-11-23T11:18:11.440Z,3.03
2017-11-23T11:20:39.799Z,2.73
2017-11-23T11:23:08.096Z,2.70
2017-11-23T11:25:36.420Z,2.57
2017-11-23T11:28:04.718Z,2.63
2017-11-23T11:30:33.017Z,2.73
2017-11-23T11:33:01.292Z,3.70
2017-11-23T11:35:29.675Z,2.80
2017-11-23T11:37:57.907Z,2.90
2017-11-23T11:40:26.246Z,2.70
2017-11-23T11:42:54.578Z,2.73
2017-11-23T11:45:22.889Z,2.30
2017-11-23T11:47:51.181Z,2.30
2017-11-23T11:50:19.431Z,2.50
2017-11-23T11:52:47.756Z,2.33
2017-11-23T11:55:16.024Z,2.90
2017-11-23T11:57:44.336Z,2.67
2017-11-23T12:00:12.631Z,2.70
2017-11-23T12:02:40.881Z,2.53
2017-11-23T12:05:09.191Z,2.10
2017-11-23T12:07:37.541Z,2.30
2017-11-23T12:10:05.806Z,2.30
2017-11-23T12:12:34.121Z,2.80
2017-11-23T12:18:16.042Z,2.70
2017-11-23T12:20:56.161Z,2.50
2017-11-23T12:23:36.158Z,2.60
2017-11-23T12:26:05.312Z,2.53
2017-11-23T12:28:45.448Z,3.10
2017-11-23T12:31:13.716Z,2.85
2017-11-23T12:33:42.021Z,2.63
2017-11-23T12:36:10.296Z,2.42
2017-11-23T12:38:38.573Z,2.70
2017-11-23T12:41:06.876Z,2.00
2017-11-23T12:43:35.139Z,2.50
2017-11-23T12:46:03.434Z,2.70
2017-11-23T12:48:31.719Z,3.27
2017-11-23T12:50:59.969Z,2.30
2017-11-23T12:53:28.244Z,2.50
2017-11-23T12:55:56.508Z,3.13
2017-11-23T12:58:24.889Z,2.67
2017-11-23T13:00:53.173Z,3.00
2017-11-23T13:03:21.543Z,2.72
2017-11-23T13:05:49.828Z,2.00
2017-11-23T13:08:18.175Z,3.20
2017-11-23T13:10:46.487Z,2.85
2017-11-23T13:13:14.762Z,3.10
2017-11-23T13:15:43.116Z,2.83
2017-11-23T13:18:11.425Z,2.85
2017-11-23T13:20:40.510Z,3.10
2017-11-23T13:23:08.805Z,3.00
2017-11-23T13:25:37.173Z,2.57
2017-11-23T13:28:05.457Z,2.55
2017-11-23T13:30:33.766Z,2.23
2017-11-23T13:33:02.009Z,2.50
2017-11-23T13:35:30.307Z,3.10
2017-11-23T13:37:58.559Z,3.00
2017-11-23T13:40:26.845Z,3.03
2017-11-23T13:42:55.100Z,3.03
2017-11-23T13:45:23.412Z,3.20
2017-11-23T13:47:51.721Z,3.13
2017-11-23T13:50:20.173Z,3.05
2017-11-23T13:52:48.527Z,3.57
2017-11-23T13:55:16.760Z,2.80
2017-11-23T13:57:45.078Z,2.70
2017-11-23T14:00:13.363Z,2.30
2017-11-23T14:02:41.714Z,3.27
2017-11-23T14:05:10.028Z,2.75
2017-11-23T14:07:38.306Z,3.30
2017-11-23T14:10:06.654Z,2.80
2017-11-23T14:12:34.937Z,3.07
2017-11-23T14:15:03.246Z,3.10
2017-11-23T14:17:31.542Z,3.25
2017-11-23T14:19:59.817Z,2.97
2017-11-23T14:22:28.167Z,3.20
2017-11-23T14:24:57.199Z,3.30
2017-11-23T14:27:26.583Z,2.80
2017-11-23T14:29:54.817Z,3.10
2017-11-23T14:32:23.133Z,2.90
2017-11-23T14:34:51.378Z,2.90
2017-11-23T14:37:19.664Z,3.20
2017-11-23T14:39:47.944Z,3.13
2017-11-23T14:42:16.276Z,2.53
2017-11-23T14:44:44.570Z,2.87
2017-11-23T14:47:12.875Z,2.78
2017-11-23T14:49:41.130Z,3.40
2017-11-23T14:52:09.400Z,2.77
2017-11-23T14:54:37.785Z,3.07
2017-11-23T14:57:06.035Z,2.70
2017-11-23T14:59:34.334Z,2.87
2017-11-23T15:02:02.611Z,2.93
2017-11-23T15:04:30.903Z,2.80
2017-11-23T15:06:59.174Z,3.10
2017-11-23T15:09:27.442Z,3.27
2017-11-23T15:11:55.720Z,3.20
2017-11-23T15:14:23.983Z,3.28
2017-11-23T15:16:52.277Z,2.90
2017-11-23T15:19:20.660Z,2.80
2017-11-23T15:21:48.932Z,3.10
2017-11-23T15:24:17.301Z,2.62
2017-11-23T15:26:46.037Z,2.43
2017-11-23T15:29:14.296Z,3.17
2017-11-23T15:31:42.611Z,3.60
2017-11-23T15:34:10.901Z,3.00
2017-11-23T15:36:39.197Z,3.37
2017-11-23T15:39:07.492Z,3.27
2017-11-23T15:41:35.764Z,3.87
2017-11-23T15:44:04.483Z,3.30
2017-11-23T15:46:33.731Z,3.40
2017-11-23T15:49:02.012Z,4.10
2017-11-23T15:51:33.515Z,3.20
2017-11-23T15:54:01.836Z,3.00
2017-11-23T15:56:30.223Z,3.55
2017-11-23T15:58:58.499Z,2.83
2017-11-23T16:01:26.834Z,3.12
2017-11-23T16:03:55.104Z,4.23
2017-11-23T16:06:23.421Z,3.23
2017-11-23T16:08:51.698Z,3.23
2017-11-23T16:11:20.119Z,3.40
2017-11-23T16:13:48.453Z,3.23
2017-11-23T16:16:16.744Z,3.28
2017-11-23T16:18:45.338Z,3.17
2017-11-23T16:21:13.633Z,3.27
2017-11-23T16:23:41.956Z,2.63
2017-11-23T16:26:10.270Z,7.82
2017-11-23T16:28:39.153Z,3.00
2017-11-23T16:31:07.437Z,3.27
2017-11-23T16:33:35.701Z,3.07
2017-11-23T16:36:04.009Z,2.90
2017-11-23T16:41:47.662Z,3.00
2017-11-23T16:47:31.388Z,3.50
2017-11-23T16:50:06.042Z,3.23
2017-11-23T16:52:40.147Z,3.80
2017-11-23T16:55:14.315Z,3.70
2017-11-23T16:57:43.454Z,3.20
2017-11-23T17:03:19.524Z,3.40
2017-11-23T17:05:53.423Z,3.50
2017-11-23T17:08:21.722Z,5.87
2017-11-23T17:10:55.470Z,3.57
2017-11-23T17:13:29.207Z,3.30
2017-11-23T17:16:02.948Z,3.90
2017-11-23T17:18:36.765Z,3.50
2017-11-23T17:21:05.432Z,3.57
2017-11-23T17:23:33.761Z,3.23
2017-11-23T17:26:02.049Z,3.70
2017-11-23T17:28:30.448Z,3.80
2017-11-23T17:30:58.711Z,3.17
2017-11-23T17:33:26.968Z,3.70
2017-11-23T17:35:55.260Z,3.43
2017-11-23T17:38:23.528Z,3.63
2017-11-23T17:40:51.838Z,3.93
2017-11-23T17:43:20.111Z,3.37
2017-11-23T17:45:48.404Z,3.50
2017-11-23T17:48:16.673Z,3.80
2017-11-23T17:50:45.021Z,3.63
2017-11-23T17:53:13.305Z,3.85
2017-11-23T17:55:41.603Z,4.03
2017-11-23T17:58:09.881Z,3.30
2017-11-23T18:00:38.169Z,3.70
2017-11-23T18:03:06.478Z,3.53
2017-11-23T18:05:34.841Z,4.27
2017-11-23T18:08:04.128Z,3.84
2017-11-23T18:10:32.419Z,3.30
2017-11-23T18:13:00.716Z,3.50
2017-11-23T18:15:28.980Z,3.30
2017-11-23T18:17:57.269Z,3.27
2017-11-23T18:20:25.663Z,3.40
2017-11-23T18:22:53.930Z,3.42
2017-11-23T18:25:22.244Z,3.30
2017-11-23T18:27:50.597Z,3.87
2017-11-23T18:30:18.857Z,3.37
2017-11-23T18:32:47.187Z,4.07
2017-11-23T18:35:15.492Z,3.50
2017-11-23T18:37:43.751Z,3.57
2017-11-23T18:40:12.016Z,4.23
2017-11-23T18:42:40.330Z,3.90
2017-11-23T18:45:08.648Z,3.83
2017-11-23T18:47:36.920Z,4.20
2017-11-23T18:50:05.192Z,4.17
2017-11-23T18:52:33.473Z,4.17
2017-11-23T18:55:02.542Z,4.60
2017-11-23T18:57:30.844Z,4.00
2017-11-23T18:59:59.152Z,4.63
2017-11-23T19:02:27.415Z,3.60
2017-11-23T19:04:55.717Z,4.53
2017-11-23T19:07:24.010Z,3.80
2017-11-23T19:09:52.293Z,3.43
2017-11-23T19:12:20.590Z,4.20
2017-11-23T19:14:48.881Z,3.63
2017-11-23T19:17:17.196Z,3.83
2017-11-23T19:19:45.465Z,3.90
2017-11-23T19:22:13.749Z,3.42
2017-11-23T19:24:42.004Z,3.20
2017-11-23T19:27:10.305Z,3.50
2017-11-23T19:29:38.588Z,3.10
2017-11-23T19:32:06.885Z,3.40
2017-11-23T19:34:35.181Z,3.40
2017-11-23T19:37:03.482Z,3.67
2017-11-23T19:39:31.712Z,3.63
2017-11-23T19:42:00.008Z,4.60
2017-11-23T19:44:28.300Z,3.37
2017-11-23T19:46:56.589Z,3.30
2017-11-23T19:49:24.874Z,3.90
2017-11-23T19:51:53.129Z,3.63
2017-11-23T19:54:21.442Z,3.50
2017-11-23T19:56:49.725Z,3.10
2017-11-23T19:59:18.013Z,3.60
2017-11-23T20:01:46.322Z,3.10
2017-11-23T20:04:14.625Z,3.55
2017-11-23T20:06:43.058Z,3.50
2017-11-23T20:09:11.368Z,3.30
2017-11-23T20:11:39.609Z,3.23
2017-11-23T20:14:07.876Z,3.50
2017-11-23T20:16:36.200Z,3.17
2017-11-23T20:19:05.225Z,3.50
2017-11-23T20:21:33.525Z,3.47
2017-11-23T20:24:02.140Z,3.13
2017-11-23T20:26:30.485Z,3.43
2017-11-23T20:28:58.773Z,3.73
2017-11-23T20:31:27.052Z,3.53
2017-11-23T20:33:55.341Z,3.63
2017-11-23T20:36:23.621Z,3.37
2017-11-23T20:38:52.043Z,3.50
2017-11-23T20:41:21.115Z,3.50
2017-11-23T20:43:49.448Z,3.13
2017-11-23T20:46:17.709Z,3.25
2017-11-23T20:48:45.990Z,3.60
2017-11-23T20:51:14.287Z,3.80
2017-11-23T20:53:42.545Z,3.60
2017-11-23T20:56:10.949Z,3.73
2017-11-23T20:58:39.207Z,4.22
2017-11-23T21:01:07.905Z,3.77
2017-11-23T21:03:36.139Z,4.20
2017-11-23T21:06:05.094Z,4.10
2017-11-23T21:08:33.345Z,4.40
2017-11-23T21:11:01.656Z,4.13
2017-11-23T21:13:29.959Z,4.50
2017-11-23T21:15:58.270Z,4.37
2017-11-23T21:18:26.540Z,3.87
2017-11-23T21:20:54.834Z,3.50
2017-11-23T21:23:23.129Z,4.20
2017-11-23T21:25:51.390Z,4.10
2017-11-23T21:28:19.709Z,3.70
2017-11-23T21:30:48.323Z,4.35
2017-11-23T21:33:16.601Z,3.70
2017-11-23T21:35:44.909Z,4.50
2017-11-23T21:38:13.224Z,3.87
2017-11-23T21:40:41.472Z,4.10
2017-11-23T21:43:09.745Z,4.87
2017-11-23T21:45:38.034Z,5.27
2017-11-23T21:48:06.321Z,4.70
2017-11-23T21:50:34.584Z,4.67
2017-11-23T21:53:02.863Z,4.13
2017-11-23T21:55:31.121Z,4.70
2017-11-23T21:57:59.428Z,4.90
2017-11-23T22:00:27.724Z,4.67
2017-11-23T22:02:56.233Z,4.40
2017-11-23T22:05:24.471Z,4.60
2017-11-23T22:07:52.772Z,3.80
2017-11-23T22:10:21.024Z,3.97
2017-11-23T22:12:49.336Z,3.97
2017-11-23T22:15:17.640Z,4.10
2017-11-23T22:17:45.953Z,4.10
2017-11-23T22:20:14.204Z,4.57
2017-11-23T22:22:42.482Z,4.07
2017-11-23T22:25:10.790Z,4.28
2017-11-23T22:27:39.071Z,4.13
2017-11-23T22:30:07.476Z,3.93
2017-11-23T22:32:35.757Z,4.70
2017-11-23T22:35:04.228Z,4.13
2017-11-23T22:37:32.514Z,4.17
2017-11-23T22:40:00.782Z,4.13
2017-11-23T22:42:29.101Z,3.93
2017-11-23T22:44:57.454Z,4.20
2017-11-23T22:47:25.727Z,3.80
2017-11-23T22:49:54.012Z,3.80
2017-11-23T22:52:22.287Z,4.25
2017-11-23T22:54:50.544Z,4.07
2017-11-23T22:57:18.837Z,3.70
2017-11-23T22:59:47.096Z,4.00
2017-11-23T23:02:15.471Z,4.20
2017-11-23T23:04:43.722Z,3.80
2017-11-23T23:07:12.821Z,4.00
2017-11-23T23:09:41.104Z,3.60
2017-11-23T23:12:09.385Z,4.10
2017-11-23T23:14:37.670Z,4.20
2017-11-23T23:17:06.127Z,3.70
2017-11-23T23:19:34.488Z,4.20
2017-11-23T23:22:02.770Z,4.10
2017-11-23T23:24:31.076Z,3.97
2017-11-23T23:26:59.329Z,4.00
2017-11-23T23:29:27.646Z,4.20
2017-11-23T23:31:55.929Z,4.30
2017-11-23T23:34:24.196Z,3.70
2017-11-23T23:36:52.552Z,4.10
2017-11-23T23:39:20.799Z,4.47
2017-11-23T23:41:49.080Z,3.90
2017-11-23T23:44:17.376Z,3.90
2017-11-23T23:46:45.685Z,3.87
2017-11-23T23:49:13.998Z,3.90
2017-11-23T23:51:42.284Z,4.20
2017-11-23T23:54:10.579Z,4.00
2017-11-23T23:56:38.897Z,4.30
2017-11-23T23:59:07.252Z,4.10
